Terminal Aerodrome Forecast
Issued by NWS Glasgow, MT

Home | Current Version | Previous Version | Text Only | Print | Product List | Glossary On
Versions: 1 2 3 4 5 6 7 8 9 10 11 12
074
FTUS45 KGGW 191120
TAFGGW
TAF
KGGW 191120Z 1912/2012 27005KT P6SM BKN090
     FM200000 27005KT P6SM BKN035
     FM200500 26006KT P6SM SCT020=

USA.gov is the U.S. government's official web portal to all federal, state and local government web resources and services.